sensor_id;sensor_type;location;lat;lon;timestamp;temperature;humidity
51996;DHT22;38010;53.264;6.592;2023-05-07T00:00:23;16.50;99.90
51996;DHT22;38010;53.264;6.592;2023-05-07T00:02:48;16.50;99.90
51996;DHT22;38010;53.264;6.592;2023-05-07T00:05:14;16.50;99.90
51996;DHT22;38010;53.264;6.592;2023-05-07T00:07:40;16.50;99.90
51996;DHT22;38010;53.264;6.592;2023-05-07T00:10:06;16.50;99.90
51996;DHT22;38010;53.264;6.592;2023-05-07T00:12:33;16.50;99.90
51996;DHT22;38010;53.264;6.592;2023-05-07T00:15:02;16.50;99.90
51996;DHT22;38010;53.264;6.592;2023-05-07T00:17:29;16.50;99.90
51996;DHT22;38010;53.264;6.592;2023-05-07T00:19:55;16.50;99.90
51996;DHT22;38010;53.264;6.592;2023-05-07T00:22:21;16.50;99.90
51996;DHT22;38010;53.264;6.592;2023-05-07T00:24:47;16.50;99.90
51996;DHT22;38010;53.264;6.592;2023-05-07T00:27:12;16.50;99.90
51996;DHT22;38010;53.264;6.592;2023-05-07T00:29:39;16.50;99.90
51996;DHT22;38010;53.264;6.592;2023-05-07T00:32:04;16.50;99.90
51996;DHT22;38010;53.264;6.592;2023-05-07T00:34:30;16.50;99.90
51996;DHT22;38010;53.264;6.592;2023-05-07T00:36:56;16.50;99.90
51996;DHT22;38010;53.264;6.592;2023-05-07T00:39:22;16.50;99.90
51996;DHT22;38010;53.264;6.592;2023-05-07T00:41:47;16.50;99.90
51996;DHT22;38010;53.264;6.592;2023-05-07T00:44:13;16.40;99.90
51996;DHT22;38010;53.264;6.592;2023-05-07T00:46:40;16.40;99.90
51996;DHT22;38010;53.264;6.592;2023-05-07T00:49:06;16.40;99.90
51996;DHT22;38010;53.264;6.592;2023-05-07T00:51:32;16.40;99.90
51996;DHT22;38010;53.264;6.592;2023-05-07T00:54:00;16.40;99.90
51996;DHT22;38010;53.264;6.592;2023-05-07T00:56:27;16.40;99.90
51996;DHT22;38010;53.264;6.592;2023-05-07T00:58:53;16.40;99.90
51996;DHT22;38010;53.264;6.592;2023-05-07T01:01:19;16.40;99.90
51996;DHT22;38010;53.264;6.592;2023-05-07T01:03:45;16.40;99.90
51996;DHT22;38010;53.264;6.592;2023-05-07T01:06:12;16.40;99.90
51996;DHT22;38010;53.264;6.592;2023-05-07T01:08:39;16.40;99.90
51996;DHT22;38010;53.264;6.592;2023-05-07T01:11:07;16.40;99.90
51996;DHT22;38010;53.264;6.592;2023-05-07T01:13:34;16.40;99.90
51996;DHT22;38010;53.264;6.592;2023-05-07T01:16:00;16.40;99.90
51996;DHT22;38010;53.264;6.592;2023-05-07T01:18:26;16.40;99.90
51996;DHT22;38010;53.264;6.592;2023-05-07T01:20:52;16.40;99.90
51996;DHT22;38010;53.264;6.592;2023-05-07T01:23:19;16.40;99.90
51996;DHT22;38010;53.264;6.592;2023-05-07T01:25:54;16.40;99.90
51996;DHT22;38010;53.264;6.592;2023-05-07T01:28:20;16.40;99.90
51996;DHT22;38010;53.264;6.592;2023-05-07T01:30:50;16.40;99.90
51996;DHT22;38010;53.264;6.592;2023-05-07T01:33:20;16.40;99.90
51996;DHT22;38010;53.264;6.592;2023-05-07T01:35:49;16.40;99.90
51996;DHT22;38010;53.264;6.592;2023-05-07T01:38:16;16.40;99.90
51996;DHT22;38010;53.264;6.592;2023-05-07T01:40:43;16.40;99.90
51996;DHT22;38010;53.264;6.592;2023-05-07T01:43:09;16.40;99.90
51996;DHT22;38010;53.264;6.592;2023-05-07T01:45:36;16.40;99.90
51996;DHT22;38010;53.264;6.592;2023-05-07T01:48:02;16.40;99.90
51996;DHT22;38010;53.264;6.592;2023-05-07T01:50:29;16.40;99.90
51996;DHT22;38010;53.264;6.592;2023-05-07T01:52:56;16.40;99.90
51996;DHT22;38010;53.264;6.592;2023-05-07T01:55:22;16.40;99.90
51996;DHT22;38010;53.264;6.592;2023-05-07T01:57:48;16.40;99.90
51996;DHT22;38010;53.264;6.592;2023-05-07T02:00:14;16.40;99.90
51996;DHT22;38010;53.264;6.592;2023-05-07T02:02:39;16.40;99.90
51996;DHT22;38010;53.264;6.592;2023-05-07T02:05:05;16.40;99.90
51996;DHT22;38010;53.264;6.592;2023-05-07T02:07:31;16.40;99.90
51996;DHT22;38010;53.264;6.592;2023-05-07T02:09:57;16.40;99.90
51996;DHT22;38010;53.264;6.592;2023-05-07T02:12:23;16.40;99.90
51996;DHT22;38010;53.264;6.592;2023-05-07T02:14:49;16.40;99.90
51996;DHT22;38010;53.264;6.592;2023-05-07T02:17:14;16.40;99.90
51996;DHT22;38010;53.264;6.592;2023-05-07T02:19:40;16.40;99.90
51996;DHT22;38010;53.264;6.592;2023-05-07T02:22:07;16.40;99.90
51996;DHT22;38010;53.264;6.592;2023-05-07T02:24:32;16.30;99.90
51996;DHT22;38010;53.264;6.592;2023-05-07T02:26:58;16.40;99.90
51996;DHT22;38010;53.264;6.592;2023-05-07T02:29:24;16.40;99.90
51996;DHT22;38010;53.264;6.592;2023-05-07T02:31:50;16.40;99.90
51996;DHT22;38010;53.264;6.592;2023-05-07T02:34:16;16.40;99.90
51996;DHT22;38010;53.264;6.592;2023-05-07T02:36:42;16.30;99.90
51996;DHT22;38010;53.264;6.592;2023-05-07T02:39:08;16.40;99.90
51996;DHT22;38010;53.264;6.592;2023-05-07T02:41:34;16.30;99.90
51996;DHT22;38010;53.264;6.592;2023-05-07T02:44:00;16.40;99.90
51996;DHT22;38010;53.264;6.592;2023-05-07T02:46:26;16.30;99.90
51996;DHT22;38010;53.264;6.592;2023-05-07T02:48:51;16.30;99.90
51996;DHT22;38010;53.264;6.592;2023-05-07T02:51:21;16.30;99.90
51996;DHT22;38010;53.264;6.592;2023-05-07T02:53:47;16.30;99.90
51996;DHT22;38010;53.264;6.592;2023-05-07T02:56:13;16.30;99.90
51996;DHT22;38010;53.264;6.592;2023-05-07T02:58:38;16.30;99.90
51996;DHT22;38010;53.264;6.592;2023-05-07T03:01:05;16.30;99.90
51996;DHT22;38010;53.264;6.592;2023-05-07T03:03:31;16.30;99.90
51996;DHT22;38010;53.264;6.592;2023-05-07T03:05:57;16.30;99.90
51996;DHT22;38010;53.264;6.592;2023-05-07T03:08:23;16.30;99.90
51996;DHT22;38010;53.264;6.592;2023-05-07T03:10:49;16.30;99.90
51996;DHT22;38010;53.264;6.592;2023-05-07T03:13:15;16.30;99.90
51996;DHT22;38010;53.264;6.592;2023-05-07T03:15:41;16.30;99.90
51996;DHT22;38010;53.264;6.592;2023-05-07T03:18:06;16.30;99.90
51996;DHT22;38010;53.264;6.592;2023-05-07T03:20:32;16.30;99.90
51996;DHT22;38010;53.264;6.592;2023-05-07T03:22:58;16.30;99.90
51996;DHT22;38010;53.264;6.592;2023-05-07T03:25:24;16.30;99.90
51996;DHT22;38010;53.264;6.592;2023-05-07T03:27:49;16.30;99.90
51996;DHT22;38010;53.264;6.592;2023-05-07T03:30:15;16.30;99.90
51996;DHT22;38010;53.264;6.592;2023-05-07T03:32:41;16.30;99.90
51996;DHT22;38010;53.264;6.592;2023-05-07T03:35:07;16.20;99.90
51996;DHT22;38010;53.264;6.592;2023-05-07T03:37:33;16.30;99.90
51996;DHT22;38010;53.264;6.592;2023-05-07T03:39:59;16.30;99.90
51996;DHT22;38010;53.264;6.592;2023-05-07T03:42:25;16.30;99.90
51996;DHT22;38010;53.264;6.592;2023-05-07T03:44:50;16.20;99.90
51996;DHT22;38010;53.264;6.592;2023-05-07T03:47:16;16.30;99.90
51996;DHT22;38010;53.264;6.592;2023-05-07T03:49:42;16.30;99.90
51996;DHT22;38010;53.264;6.592;2023-05-07T03:52:07;16.20;99.90
51996;DHT22;38010;53.264;6.592;2023-05-07T03:54:33;16.30;99.90
51996;DHT22;38010;53.264;6.592;2023-05-07T03:56:59;16.20;99.90
51996;DHT22;38010;53.264;6.592;2023-05-07T03:59:25;16.20;99.90
51996;DHT22;38010;53.264;6.592;2023-05-07T04:01:50;16.20;99.90
51996;DHT22;38010;53.264;6.592;2023-05-07T04:04:16;16.20;99.90
51996;DHT22;38010;53.264;6.592;2023-05-07T04:06:42;16.20;99.90
51996;DHT22;38010;53.264;6.592;2023-05-07T04:09:08;16.20;99.90
51996;DHT22;38010;53.264;6.592;2023-05-07T04:11:34;16.20;99.90
51996;DHT22;38010;53.264;6.592;2023-05-07T04:14:00;16.20;99.90
51996;DHT22;38010;53.264;6.592;2023-05-07T04:16:26;16.20;99.90
51996;DHT22;38010;53.264;6.592;2023-05-07T04:18:52;16.20;99.90
51996;DHT22;38010;53.264;6.592;2023-05-07T04:21:19;16.20;99.90
51996;DHT22;38010;53.264;6.592;2023-05-07T04:23:48;16.20;99.90
51996;DHT22;38010;53.264;6.592;2023-05-07T04:26:15;16.20;99.90
51996;DHT22;38010;53.264;6.592;2023-05-07T04:28:41;16.20;99.90
51996;DHT22;38010;53.264;6.592;2023-05-07T04:31:07;16.20;99.90
51996;DHT22;38010;53.264;6.592;2023-05-07T04:33:33;16.20;99.90
51996;DHT22;38010;53.264;6.592;2023-05-07T04:36:03;16.20;99.90
51996;DHT22;38010;53.264;6.592;2023-05-07T04:38:32;16.20;99.90
51996;DHT22;38010;53.264;6.592;2023-05-07T04:41:03;16.20;99.90
51996;DHT22;38010;53.264;6.592;2023-05-07T04:43:30;16.20;99.90
51996;DHT22;38010;53.264;6.592;2023-05-07T04:45:56;16.20;99.90
51996;DHT22;38010;53.264;6.592;2023-05-07T04:48:22;16.20;99.90
51996;DHT22;38010;53.264;6.592;2023-05-07T04:50:48;16.20;99.90
51996;DHT22;38010;53.264;6.592;2023-05-07T04:53:14;16.20;99.90
51996;DHT22;38010;53.264;6.592;2023-05-07T04:55:40;16.20;99.90
51996;DHT22;38010;53.264;6.592;2023-05-07T04:58:05;16.20;99.90
51996;DHT22;38010;53.264;6.592;2023-05-07T05:00:31;16.20;99.90
51996;DHT22;38010;53.264;6.592;2023-05-07T05:02:57;16.20;99.90
51996;DHT22;38010;53.264;6.592;2023-05-07T05:05:22;16.20;99.90
51996;DHT22;38010;53.264;6.592;2023-05-07T05:07:48;16.20;99.90
51996;DHT22;38010;53.264;6.592;2023-05-07T05:10:14;16.20;99.90
51996;DHT22;38010;53.264;6.592;2023-05-07T05:12:39;16.20;99.90
51996;DHT22;38010;53.264;6.592;2023-05-07T05:15:06;16.20;99.90
51996;DHT22;38010;53.264;6.592;2023-05-07T05:17:31;16.20;99.90
51996;DHT22;38010;53.264;6.592;2023-05-07T05:19:59;16.20;99.90
51996;DHT22;38010;53.264;6.592;2023-05-07T05:22:25;16.20;99.90
51996;DHT22;38010;53.264;6.592;2023-05-07T05:24:51;16.20;99.90
51996;DHT22;38010;53.264;6.592;2023-05-07T05:27:16;16.10;99.90
51996;DHT22;38010;53.264;6.592;2023-05-07T05:29:42;16.20;99.90
51996;DHT22;38010;53.264;6.592;2023-05-07T05:32:08;16.10;99.90
51996;DHT22;38010;53.264;6.592;2023-05-07T05:34:34;16.10;99.90
51996;DHT22;38010;53.264;6.592;2023-05-07T05:36:59;16.20;99.90
51996;DHT22;38010;53.264;6.592;2023-05-07T05:39:25;16.10;99.90
51996;DHT22;38010;53.264;6.592;2023-05-07T05:41:51;16.10;99.90
51996;DHT22;38010;53.264;6.592;2023-05-07T05:44:17;16.10;99.90
51996;DHT22;38010;53.264;6.592;2023-05-07T05:46:42;16.10;99.90
51996;DHT22;38010;53.264;6.592;2023-05-07T05:49:08;16.10;99.90
51996;DHT22;38010;53.264;6.592;2023-05-07T05:51:34;16.10;99.90
51996;DHT22;38010;53.264;6.592;2023-05-07T05:54:00;16.10;99.90
51996;DHT22;38010;53.264;6.592;2023-05-07T05:56:25;16.10;99.90
51996;DHT22;38010;53.264;6.592;2023-05-07T05:58:51;16.10;99.90
51996;DHT22;38010;53.264;6.592;2023-05-07T06:01:18;16.10;99.90
51996;DHT22;38010;53.264;6.592;2023-05-07T06:03:44;16.10;99.90
51996;DHT22;38010;53.264;6.592;2023-05-07T06:06:10;16.20;99.90
51996;DHT22;38010;53.264;6.592;2023-05-07T06:08:35;16.10;99.90
51996;DHT22;38010;53.264;6.592;2023-05-07T06:11:02;16.10;99.90
51996;DHT22;38010;53.264;6.592;2023-05-07T06:13:28;16.10;99.90
51996;DHT22;38010;53.264;6.592;2023-05-07T06:15:54;16.10;99.90
51996;DHT22;38010;53.264;6.592;2023-05-07T06:18:19;16.10;99.90
51996;DHT22;38010;53.264;6.592;2023-05-07T06:20:45;16.10;99.90
51996;DHT22;38010;53.264;6.592;2023-05-07T06:23:11;16.10;99.90
51996;DHT22;38010;53.264;6.592;2023-05-07T06:25:37;16.10;99.90
51996;DHT22;38010;53.264;6.592;2023-05-07T06:28:02;16.10;99.90
51996;DHT22;38010;53.264;6.592;2023-05-07T06:30:28;16.10;99.90
51996;DHT22;38010;53.264;6.592;2023-05-07T06:32:54;16.10;99.90
51996;DHT22;38010;53.264;6.592;2023-05-07T06:35:20;16.20;99.90
51996;DHT22;38010;53.264;6.592;2023-05-07T06:37:45;16.20;99.90
51996;DHT22;38010;53.264;6.592;2023-05-07T06:40:11;16.20;99.90
51996;DHT22;38010;53.264;6.592;2023-05-07T06:42:37;16.20;99.90
51996;DHT22;38010;53.264;6.592;2023-05-07T06:45:03;16.20;99.90
51996;DHT22;38010;53.264;6.592;2023-05-07T06:47:29;16.20;99.90
51996;DHT22;38010;53.264;6.592;2023-05-07T06:49:55;16.20;99.90
51996;DHT22;38010;53.264;6.592;2023-05-07T06:52:21;16.20;99.90
51996;DHT22;38010;53.264;6.592;2023-05-07T06:54:47;16.20;99.90
51996;DHT22;38010;53.264;6.592;2023-05-07T06:57:12;16.20;99.90
51996;DHT22;38010;53.264;6.592;2023-05-07T06:59:38;16.20;99.90
51996;DHT22;38010;53.264;6.592;2023-05-07T07:02:04;16.20;99.90
51996;DHT22;38010;53.264;6.592;2023-05-07T07:04:29;16.20;99.90
51996;DHT22;38010;53.264;6.592;2023-05-07T07:06:55;16.20;99.90
51996;DHT22;38010;53.264;6.592;2023-05-07T07:09:22;16.20;99.90
51996;DHT22;38010;53.264;6.592;2023-05-07T07:11:48;16.20;99.90
51996;DHT22;38010;53.264;6.592;2023-05-07T07:14:13;16.20;99.90
51996;DHT22;38010;53.264;6.592;2023-05-07T07:16:39;16.20;99.90
51996;DHT22;38010;53.264;6.592;2023-05-07T07:19:06;16.20;99.90
51996;DHT22;38010;53.264;6.592;2023-05-07T07:21:32;16.20;99.90
51996;DHT22;38010;53.264;6.592;2023-05-07T07:23:57;16.20;99.90
51996;DHT22;38010;53.264;6.592;2023-05-07T07:26:23;16.20;99.90
51996;DHT22;38010;53.264;6.592;2023-05-07T07:28:49;16.20;99.90
51996;DHT22;38010;53.264;6.592;2023-05-07T07:31:14;16.20;99.90
51996;DHT22;38010;53.264;6.592;2023-05-07T07:33:40;16.20;99.90
51996;DHT22;38010;53.264;6.592;2023-05-07T07:36:06;16.20;99.90
51996;DHT22;38010;53.264;6.592;2023-05-07T07:38:33;16.20;99.90
51996;DHT22;38010;53.264;6.592;2023-05-07T07:40:59;16.20;99.90
51996;DHT22;38010;53.264;6.592;2023-05-07T07:43:25;16.20;99.90
51996;DHT22;38010;53.264;6.592;2023-05-07T07:45:50;16.20;99.90
51996;DHT22;38010;53.264;6.592;2023-05-07T07:48:16;16.20;99.90
51996;DHT22;38010;53.264;6.592;2023-05-07T07:50:42;16.20;99.90
51996;DHT22;38010;53.264;6.592;2023-05-07T07:53:08;16.20;99.90
51996;DHT22;38010;53.264;6.592;2023-05-07T07:55:38;16.20;99.90
51996;DHT22;38010;53.264;6.592;2023-05-07T07:58:04;16.20;99.90
51996;DHT22;38010;53.264;6.592;2023-05-07T08:00:30;16.20;99.90
51996;DHT22;38010;53.264;6.592;2023-05-07T08:02:56;16.20;99.90
51996;DHT22;38010;53.264;6.592;2023-05-07T08:05:22;16.20;99.90
51996;DHT22;38010;53.264;6.592;2023-05-07T08:07:48;16.20;99.90
51996;DHT22;38010;53.264;6.592;2023-05-07T08:10:17;16.20;99.90
51996;DHT22;38010;53.264;6.592;2023-05-07T08:12:50;16.20;99.90
51996;DHT22;38010;53.264;6.592;2023-05-07T08:15:16;16.20;99.90
51996;DHT22;38010;53.264;6.592;2023-05-07T08:17:42;16.20;99.90
51996;DHT22;38010;53.264;6.592;2023-05-07T08:20:08;16.20;99.90
51996;DHT22;38010;53.264;6.592;2023-05-07T08:22:38;16.20;99.90
51996;DHT22;38010;53.264;6.592;2023-05-07T08:25:04;16.30;99.90
51996;DHT22;38010;53.264;6.592;2023-05-07T08:27:29;16.30;99.90
51996;DHT22;38010;53.264;6.592;2023-05-07T08:29:55;16.30;99.90
51996;DHT22;38010;53.264;6.592;2023-05-07T08:32:21;16.30;99.90
51996;DHT22;38010;53.264;6.592;2023-05-07T08:34:47;16.30;99.90
51996;DHT22;38010;53.264;6.592;2023-05-07T08:37:13;16.30;99.90
51996;DHT22;38010;53.264;6.592;2023-05-07T08:39:39;16.30;99.90
51996;DHT22;38010;53.264;6.592;2023-05-07T08:42:05;16.30;99.90
51996;DHT22;38010;53.264;6.592;2023-05-07T08:44:35;16.30;99.90
51996;DHT22;38010;53.264;6.592;2023-05-07T08:47:02;16.30;99.90
51996;DHT22;38010;53.264;6.592;2023-05-07T08:49:28;16.40;99.90
51996;DHT22;38010;53.264;6.592;2023-05-07T08:51:54;16.40;99.90
51996;DHT22;38010;53.264;6.592;2023-05-07T08:54:21;16.40;99.90
51996;DHT22;38010;53.264;6.592;2023-05-07T08:56:47;16.40;99.90
51996;DHT22;38010;53.264;6.592;2023-05-07T08:59:13;16.40;99.90
51996;DHT22;38010;53.264;6.592;2023-05-07T09:01:40;16.50;99.90
51996;DHT22;38010;53.264;6.592;2023-05-07T09:04:06;16.50;99.90
51996;DHT22;38010;53.264;6.592;2023-05-07T09:06:33;16.50;99.90
51996;DHT22;38010;53.264;6.592;2023-05-07T09:09:00;16.50;99.90
51996;DHT22;38010;53.264;6.592;2023-05-07T09:11:26;16.50;99.90
51996;DHT22;38010;53.264;6.592;2023-05-07T09:13:56;16.60;99.90
51996;DHT22;38010;53.264;6.592;2023-05-07T09:16:24;16.60;99.90
51996;DHT22;38010;53.264;6.592;2023-05-07T09:18:54;16.60;99.90
51996;DHT22;38010;53.264;6.592;2023-05-07T09:21:20;16.60;99.90
51996;DHT22;38010;53.264;6.592;2023-05-07T09:23:52;16.60;99.90
51996;DHT22;38010;53.264;6.592;2023-05-07T09:26:19;16.60;99.90
51996;DHT22;38010;53.264;6.592;2023-05-07T09:28:46;16.50;99.90
51996;DHT22;38010;53.264;6.592;2023-05-07T09:31:12;16.60;99.90
51996;DHT22;38010;53.264;6.592;2023-05-07T09:33:38;16.60;99.90
51996;DHT22;38010;53.264;6.592;2023-05-07T09:36:06;16.60;99.90
51996;DHT22;38010;53.264;6.592;2023-05-07T09:38:33;16.60;99.90
51996;DHT22;38010;53.264;6.592;2023-05-07T09:41:07;16.60;99.90
51996;DHT22;38010;53.264;6.592;2023-05-07T09:43:37;16.60;99.90
51996;DHT22;38010;53.264;6.592;2023-05-07T09:46:08;16.70;99.90
51996;DHT22;38010;53.264;6.592;2023-05-07T09:48:37;16.60;99.90
51996;DHT22;38010;53.264;6.592;2023-05-07T09:51:29;16.70;99.90
51996;DHT22;38010;53.264;6.592;2023-05-07T09:53:57;16.70;99.90
51996;DHT22;38010;53.264;6.592;2023-05-07T09:56:26;16.70;99.90
51996;DHT22;38010;53.264;6.592;2023-05-07T09:58:54;16.70;99.90
51996;DHT22;38010;53.264;6.592;2023-05-07T10:01:21;16.80;99.90
51996;DHT22;38010;53.264;6.592;2023-05-07T10:03:49;16.80;99.90
51996;DHT22;38010;53.264;6.592;2023-05-07T10:06:17;16.80;99.90
51996;DHT22;38010;53.264;6.592;2023-05-07T10:08:44;16.80;99.90
51996;DHT22;38010;53.264;6.592;2023-05-07T10:11:10;16.80;99.90
51996;DHT22;38010;53.264;6.592;2023-05-07T10:13:36;16.80;99.90
51996;DHT22;38010;53.264;6.592;2023-05-07T10:16:04;16.80;99.90
51996;DHT22;38010;53.264;6.592;2023-05-07T10:18:31;16.80;99.90
51996;DHT22;38010;53.264;6.592;2023-05-07T10:21:04;16.80;99.90
51996;DHT22;38010;53.264;6.592;2023-05-07T10:23:32;16.80;99.90
51996;DHT22;38010;53.264;6.592;2023-05-07T10:26:03;16.80;99.90
51996;DHT22;38010;53.264;6.592;2023-05-07T10:28:32;16.80;99.90
51996;DHT22;38010;53.264;6.592;2023-05-07T10:33:42;16.80;99.90
51996;DHT22;38010;53.264;6.592;2023-05-07T10:36:10;16.80;99.90
51996;DHT22;38010;53.264;6.592;2023-05-07T10:38:36;16.80;99.90
51996;DHT22;38010;53.264;6.592;2023-05-07T10:41:02;16.80;99.90
51996;DHT22;38010;53.264;6.592;2023-05-07T10:43:49;16.80;99.90
51996;DHT22;38010;53.264;6.592;2023-05-07T10:46:18;16.80;99.90
51996;DHT22;38010;53.264;6.592;2023-05-07T10:51:30;16.80;99.90
51996;DHT22;38010;53.264;6.592;2023-05-07T10:56:39;16.80;99.90
51996;DHT22;38010;53.264;6.592;2023-05-07T11:01:54;16.80;99.90
51996;DHT22;38010;53.264;6.592;2023-05-07T11:04:20;16.80;99.90
51996;DHT22;38010;53.264;6.592;2023-05-07T11:15:06;16.90;99.90
51996;DHT22;38010;53.264;6.592;2023-05-07T11:17:33;16.90;99.90
51996;DHT22;38010;53.264;6.592;2023-05-07T11:20:01;16.90;99.90
51996;DHT22;38010;53.264;6.592;2023-05-07T11:25:04;17.00;99.90
51996;DHT22;38010;53.264;6.592;2023-05-07T11:27:31;17.00;99.90
51996;DHT22;38010;53.264;6.592;2023-05-07T11:29:58;17.00;99.90
51996;DHT22;38010;53.264;6.592;2023-05-07T11:32:29;17.00;99.90
51996;DHT22;38010;53.264;6.592;2023-05-07T11:34:55;17.10;99.90
51996;DHT22;38010;53.264;6.592;2023-05-07T11:37:22;17.10;99.90
51996;DHT22;38010;53.264;6.592;2023-05-07T11:39:49;17.10;99.90
51996;DHT22;38010;53.264;6.592;2023-05-07T11:42:31;17.10;99.90
51996;DHT22;38010;53.264;6.592;2023-05-07T11:44:58;17.10;99.90
51996;DHT22;38010;53.264;6.592;2023-05-07T11:47:24;17.10;99.90
51996;DHT22;38010;53.264;6.592;2023-05-07T11:49:52;17.10;99.90
51996;DHT22;38010;53.264;6.592;2023-05-07T11:52:19;17.10;99.90
51996;DHT22;38010;53.264;6.592;2023-05-07T11:54:49;17.20;99.90
51996;DHT22;38010;53.264;6.592;2023-05-07T11:57:15;17.20;99.90
51996;DHT22;38010;53.264;6.592;2023-05-07T11:59:41;17.20;99.90
51996;DHT22;38010;53.264;6.592;2023-05-07T12:02:08;17.20;99.90
51996;DHT22;38010;53.264;6.592;2023-05-07T12:04:34;17.20;99.90
51996;DHT22;38010;53.264;6.592;2023-05-07T12:07:00;17.20;99.90
51996;DHT22;38010;53.264;6.592;2023-05-07T12:09:26;17.20;99.90
51996;DHT22;38010;53.264;6.592;2023-05-07T12:11:52;17.20;99.90
51996;DHT22;38010;53.264;6.592;2023-05-07T12:14:18;17.20;99.90
51996;DHT22;38010;53.264;6.592;2023-05-07T12:16:45;17.20;99.90
51996;DHT22;38010;53.264;6.592;2023-05-07T12:19:11;17.30;99.90
51996;DHT22;38010;53.264;6.592;2023-05-07T12:21:40;17.30;99.90
51996;DHT22;38010;53.264;6.592;2023-05-07T12:24:07;17.40;99.90
51996;DHT22;38010;53.264;6.592;2023-05-07T12:26:37;17.40;99.90
51996;DHT22;38010;53.264;6.592;2023-05-07T12:29:03;17.50;99.90
51996;DHT22;38010;53.264;6.592;2023-05-07T12:31:29;17.60;99.90
51996;DHT22;38010;53.264;6.592;2023-05-07T12:33:55;17.60;99.90
51996;DHT22;38010;53.264;6.592;2023-05-07T12:36:21;17.60;99.90
51996;DHT22;38010;53.264;6.592;2023-05-07T12:38:49;17.70;99.90
51996;DHT22;38010;53.264;6.592;2023-05-07T12:41:15;17.70;99.90
51996;DHT22;38010;53.264;6.592;2023-05-07T12:43:44;17.70;99.90
51996;DHT22;38010;53.264;6.592;2023-05-07T12:46:11;17.70;99.90
51996;DHT22;38010;53.264;6.592;2023-05-07T12:48:44;17.70;99.90
51996;DHT22;38010;53.264;6.592;2023-05-07T12:51:11;17.80;99.90
51996;DHT22;38010;53.264;6.592;2023-05-07T12:53:42;17.80;99.90
51996;DHT22;38010;53.264;6.592;2023-05-07T12:56:08;17.80;99.90
51996;DHT22;38010;53.264;6.592;2023-05-07T12:58:35;17.80;99.90
51996;DHT22;38010;53.264;6.592;2023-05-07T13:01:05;17.90;99.90
51996;DHT22;38010;53.264;6.592;2023-05-07T13:03:33;17.90;99.90
51996;DHT22;38010;53.264;6.592;2023-05-07T13:06:03;18.00;99.90
51996;DHT22;38010;53.264;6.592;2023-05-07T13:08:33;18.00;99.90
51996;DHT22;38010;53.264;6.592;2023-05-07T13:11:01;18.00;99.90
51996;DHT22;38010;53.264;6.592;2023-05-07T13:13:35;18.10;99.90
51996;DHT22;38010;53.264;6.592;2023-05-07T13:16:05;18.10;99.90
51996;DHT22;38010;53.264;6.592;2023-05-07T13:18:32;18.10;99.90
51996;DHT22;38010;53.264;6.592;2023-05-07T13:20:58;18.10;99.90
51996;DHT22;38010;53.264;6.592;2023-05-07T13:23:24;18.10;99.90
51996;DHT22;38010;53.264;6.592;2023-05-07T13:25:50;18.20;99.90
51996;DHT22;38010;53.264;6.592;2023-05-07T13:28:16;18.20;99.90
51996;DHT22;38010;53.264;6.592;2023-05-07T13:30:42;18.30;99.90
51996;DHT22;38010;53.264;6.592;2023-05-07T13:33:08;18.40;99.90
51996;DHT22;38010;53.264;6.592;2023-05-07T13:35:34;18.40;99.90
51996;DHT22;38010;53.264;6.592;2023-05-07T13:38:00;18.60;99.90
51996;DHT22;38010;53.264;6.592;2023-05-07T13:40:26;18.70;99.90
51996;DHT22;38010;53.264;6.592;2023-05-07T13:42:52;18.90;99.90
51996;DHT22;38010;53.264;6.592;2023-05-07T13:45:19;19.00;99.90
51996;DHT22;38010;53.264;6.592;2023-05-07T13:47:45;19.40;99.90
51996;DHT22;38010;53.264;6.592;2023-05-07T13:50:11;19.50;99.90
51996;DHT22;38010;53.264;6.592;2023-05-07T13:52:41;20.60;99.90
51996;DHT22;38010;53.264;6.592;2023-05-07T13:55:09;21.60;99.90
51996;DHT22;38010;53.264;6.592;2023-05-07T14:00:04;22.80;99.90
51996;DHT22;38010;53.264;6.592;2023-05-07T14:02:31;22.90;99.90
51996;DHT22;38010;53.264;6.592;2023-05-07T14:04:58;23.50;99.90
51996;DHT22;38010;53.264;6.592;2023-05-07T14:07:23;24.30;99.90
51996;DHT22;38010;53.264;6.592;2023-05-07T14:09:49;25.70;99.90
51996;DHT22;38010;53.264;6.592;2023-05-07T14:12:15;26.20;99.90
51996;DHT22;38010;53.264;6.592;2023-05-07T14:14:41;27.00;98.60
51996;DHT22;38010;53.264;6.592;2023-05-07T14:17:06;27.00;97.60
51996;DHT22;38010;53.264;6.592;2023-05-07T14:19:33;26.00;97.60
51996;DHT22;38010;53.264;6.592;2023-05-07T14:21:59;25.00;98.00
51996;DHT22;38010;53.264;6.592;2023-05-07T14:24:25;24.10;98.90
51996;DHT22;38010;53.264;6.592;2023-05-07T14:26:51;23.30;99.80
51996;DHT22;38010;53.264;6.592;2023-05-07T14:29:17;22.70;99.90
51996;DHT22;38010;53.264;6.592;2023-05-07T14:31:45;22.20;99.90
51996;DHT22;38010;53.264;6.592;2023-05-07T14:34:11;21.60;99.90
51996;DHT22;38010;53.264;6.592;2023-05-07T14:36:36;21.30;99.90
51996;DHT22;38010;53.264;6.592;2023-05-07T14:39:03;20.90;99.90
51996;DHT22;38010;53.264;6.592;2023-05-07T14:41:29;20.70;99.90
51996;DHT22;38010;53.264;6.592;2023-05-07T14:43:56;20.40;99.90
51996;DHT22;38010;53.264;6.592;2023-05-07T14:46:24;20.20;99.90
51996;DHT22;38010;53.264;6.592;2023-05-07T14:48:50;20.10;99.90
51996;DHT22;38010;53.264;6.592;2023-05-07T14:51:16;19.90;99.90
51996;DHT22;38010;53.264;6.592;2023-05-07T14:53:42;19.80;99.90
51996;DHT22;38010;53.264;6.592;2023-05-07T14:56:08;19.70;99.90
51996;DHT22;38010;53.264;6.592;2023-05-07T14:58:34;19.60;99.90
51996;DHT22;38010;53.264;6.592;2023-05-07T15:01:00;19.40;99.90
51996;DHT22;38010;53.264;6.592;2023-05-07T15:03:27;19.30;99.90
51996;DHT22;38010;53.264;6.592;2023-05-07T15:05:52;19.20;99.90
51996;DHT22;38010;53.264;6.592;2023-05-07T15:08:18;19.10;99.90
51996;DHT22;38010;53.264;6.592;2023-05-07T15:10:44;19.00;99.90
51996;DHT22;38010;53.264;6.592;2023-05-07T15:13:11;18.90;99.90
51996;DHT22;38010;53.264;6.592;2023-05-07T15:15:38;18.90;99.90
51996;DHT22;38010;53.264;6.592;2023-05-07T15:18:03;18.80;99.90
51996;DHT22;38010;53.264;6.592;2023-05-07T15:20:30;18.80;99.90
51996;DHT22;38010;53.264;6.592;2023-05-07T15:22:55;18.70;99.90
51996;DHT22;38010;53.264;6.592;2023-05-07T15:25:22;18.70;99.90
51996;DHT22;38010;53.264;6.592;2023-05-07T15:27:48;18.70;99.90
51996;DHT22;38010;53.264;6.592;2023-05-07T15:30:14;18.70;99.90
51996;DHT22;38010;53.264;6.592;2023-05-07T15:32:41;18.70;99.90
51996;DHT22;38010;53.264;6.592;2023-05-07T15:35:07;18.70;99.90
51996;DHT22;38010;53.264;6.592;2023-05-07T15:37:33;18.70;99.90
51996;DHT22;38010;53.264;6.592;2023-05-07T15:40:00;18.70;99.90
51996;DHT22;38010;53.264;6.592;2023-05-07T15:42:27;18.70;99.90
51996;DHT22;38010;53.264;6.592;2023-05-07T15:44:53;18.70;99.90
51996;DHT22;38010;53.264;6.592;2023-05-07T15:47:19;18.70;99.90
51996;DHT22;38010;53.264;6.592;2023-05-07T15:49:45;18.70;99.90